| Date | Time | Temp. (oF) | Dew Point (oF) | Rel. Hum. (%) | Press. (in.) | Wind Dir. | Wind Speed (mph) | Hourly Rainfall (in.) |
|
|---|---|---|---|---|---|---|---|---|---|
| 1 | 03/31 | 00:00 | 43 | 38 | 84 | 30.12 | SSE | 0 | 0.00 |
| 2 | 03/30 | 23:00 | 45 | 39 | 81 | 30.11 | ENE | 7 | 0.00 |
| 3 | 03/30 | 22:00 | 49 | 42 | 77 | 30.10 | SSE | 3 | 0.00 |
| 4 | 03/30 | 21:00 | 51 | 40 | 66 | 30.09 | SSE | 4 | 0.00 |
| 5 | 03/30 | 20:00 | 53 | 39 | 60 | 30.06 | SSE | 4 | 0.00 |
| 6 | 03/30 | 19:00 | 56 | 40 | 57 | 30.04 | S | 5 | 0.00 |
| 7 | 03/30 | 18:00 | 59 | 40 | 50 | 30.01 | ESE | 4 | 0.00 |
| 8 | 03/30 | 17:00 | 61 | 42 | 50 | 29.99 | E | 3 | 0.00 |
| 9 | 03/30 | 16:00 | 61 | 41 | 48 | 30.00 | SE | 3 | 0.00 |
| 10 | 03/30 | 15:00 | 62 | 40 | 45 | 30.02 | SSE | 2 | 0.00 |
| 11 | 03/30 | 14:00 | 60 | 38 | 45 | 30.05 | SE | 1 | 0.00 |
| 12 | 03/30 | 13:00 | 57 | 39 | 52 | 30.06 | E | 2 | 0.00 |
| 13 | 03/30 | 12:00 | 55 | 38 | 54 | 30.07 | SE | 3 | 0.00 |
| 14 | 03/30 | 11:00 | 54 | 38 | 56 | 30.08 | E | 1 | 0.00 |
| 15 | 03/30 | 10:00 | 52 | 40 | 65 | 30.10 | E | 4 | 0.00 |
| 16 | 03/30 | 09:00 | 46 | 41 | 85 | 30.11 | WSW | 1 | 0.00 |
| 17 | 03/30 | 08:00 | 42 | 41 | 98 | 30.09 | S | 0 | 0.00 |
| 18 | 03/30 | 07:00 | 36 | 35 | 97 | 30.08 | WSW | 0 | 0.00 |
| 19 | 03/30 | 06:00 | 35 | 33 | 95 | 30.06 | SW | 0 | 0.00 |
| 20 | 03/30 | 05:00 | 37 | 35 | 93 | 30.03 | WSW | 0 | 0.00 |
| 21 | 03/30 | 04:00 | 39 | 37 | 93 | 30.02 | WNW | 0 | 0.00 |
| 22 | 03/30 | 03:00 | 39 | 36 | 92 | 29.98 | WSW | 3 | 0.00 |
| 23 | 03/30 | 02:00 | 40 | 37 | 90 | 29.98 | SW | 3 | 0.00 |
| 24 | 03/30 | 01:00 | 41 | 37 | 87 | 29.98 | WNW | 0 | 0.00 |